Time;durP1;ratioP1;P1;durP2;ratioP2;P2;SDS_P1;SDS_P2;PMS_P1;PMS_P2;Temp;Humidity;BMP_temperature;BMP_pressure;BME280_temperature;BME280_humidity;BME280_pressure;Samples;Min_cycle;Max_cycle;Signal;HPM_P1;HPM_P2
2022/11/04 00:00:48;;;;;;;21.13;13.43;;;11.40;99.90;;;;;;5032142;28;20409;-74
2022/11/04 00:03:13;;;;;;;16.15;12.00;;;11.40;99.90;;;;;;5053300;28;20055;-76
2022/11/04 00:05:39;;;;;;;19.38;13.10;;;11.40;99.90;;;;;;5053632;28;20044;-75
2022/11/04 00:08:23;;;;;;;16.35;12.18;;;11.40;99.90;;;;;;5053311;28;20096;-77
2022/11/04 00:13:37;;;;;;;16.25;12.27;;;11.40;99.90;;;;;;5035188;28;20411;-75
2022/11/04 00:18:48;;;;;;;14.98;10.93;;;11.40;99.90;;;;;;5033416;28;20055;-76
2022/11/04 00:29:26;;;;;;;9.83;3.90;;;11.30;99.90;;;;;;5052687;28;20136;-74
2022/11/04 00:34:36;;;;;;;7.30;2.30;;;11.10;99.90;;;;;;5034674;28;20060;-76
2022/11/04 00:37:02;;;;;;;6.00;2.00;;;11.10;99.90;;;;;;5034767;28;20083;-75
2022/11/04 00:39:28;;;;;;;3.15;1.70;;;11.00;99.90;;;;;;5052174;28;20065;-73
2022/11/04 00:41:54;;;;;;;2.65;1.50;;;11.00;99.90;;;;;;5052457;28;20053;-75
2022/11/04 00:44:20;;;;;;;2.53;1.20;;;10.90;99.90;;;;;;5052262;28;20064;-73
2022/11/04 00:46:45;;;;;;;3.63;1.23;;;10.90;99.90;;;;;;5052416;28;20064;-75
2022/11/04 00:49:11;;;;;;;4.53;0.98;;;11.00;99.90;;;;;;5052415;28;20067;-74
2022/11/04 00:51:38;;;;;;;2.60;1.00;;;11.00;99.90;;;;;;5052752;28;20061;-74
2022/11/04 00:54:03;;;;;;;2.72;0.70;;;10.80;99.90;;;;;;5033885;28;20083;-73
2022/11/04 00:56:29;;;;;;;4.78;0.70;;;10.70;99.90;;;;;;5034118;28;20790;-76
2022/11/04 00:58:55;;;;;;;8.52;0.70;;;10.70;99.90;;;;;;5052131;28;20132;-73
2022/11/04 01:01:20;;;;;;;2.05;0.55;;;10.60;99.90;;;;;;5034137;28;20471;-74
2022/11/04 01:03:51;;;;;;;4.28;0.57;;;10.80;99.90;;;;;;5034058;28;20089;-76
2022/11/04 01:06:18;;;;;;;3.45;0.50;;;10.60;99.90;;;;;;5052191;28;20079;-74
2022/11/04 01:08:44;;;;;;;5.40;0.55;;;10.60;99.90;;;;;;5051833;28;20152;-73
2022/11/04 01:11:11;;;;;;;1.15;0.40;;;10.60;99.90;;;;;;5033520;28;20071;-74
2022/11/04 01:13:37;;;;;;;1.63;0.32;;;10.60;99.90;;;;;;5050519;28;20258;-76
2022/11/04 01:16:06;;;;;;;2.20;0.40;;;10.90;99.90;;;;;;5033772;28;20056;-74
2022/11/04 01:18:32;;;;;;;2.22;0.52;;;10.60;99.90;;;;;;5033874;28;20110;-75
2022/11/04 01:21:02;;;;;;;3.95;0.70;;;10.50;99.90;;;;;;5033564;28;20103;-73
2022/11/04 01:23:28;;;;;;;3.78;0.50;;;10.50;99.90;;;;;;5051489;28;20049;-73
2022/11/04 01:25:54;;;;;;;2.75;0.57;;;10.60;99.90;;;;;;5051072;28;20036;-75
2022/11/04 01:28:20;;;;;;;4.03;0.40;;;10.60;99.90;;;;;;5051976;28;20095;-74
2022/11/04 01:30:45;;;;;;;3.22;0.35;;;10.50;99.90;;;;;;5033922;28;20044;-73
2022/11/04 01:33:11;;;;;;;1.67;0.55;;;10.60;99.90;;;;;;5051654;28;20044;-76
2022/11/04 01:35:36;;;;;;;3.03;0.50;;;10.50;99.90;;;;;;5034173;28;20049;-79
2022/11/04 01:38:02;;;;;;;1.88;0.40;;;10.80;99.90;;;;;;5033372;28;20120;-75
2022/11/04 01:40:28;;;;;;;3.00;0.35;;;10.50;99.90;;;;;;5033283;28;20063;-74
2022/11/04 01:42:53;;;;;;;4.53;0.30;;;10.70;99.90;;;;;;5051048;28;20056;-72
2022/11/04 01:45:23;;;;;;;5.57;0.32;;;10.50;99.90;;;;;;5051106;28;20053;-73
2022/11/04 01:48:01;;;;;;;4.85;0.40;;;10.90;99.90;;;;;;5050863;28;20163;-74
2022/11/04 01:50:30;;;;;;;1.90;0.40;;;10.50;99.90;;;;;;5033067;28;20067;-74
2022/11/04 01:53:12;;;;;;;4.82;0.55;;;10.50;99.90;;;;;;5050511;28;20578;-73
2022/11/04 01:55:50;;;;;;;4.22;0.40;;;10.50;99.90;;;;;;5051031;28;20478;-72
2022/11/04 01:58:19;;;;;;;5.43;0.32;;;10.60;99.90;;;;;;5050495;28;20036;-75
2022/11/04 02:00:45;;;;;;;4.47;0.55;;;10.50;99.90;;;;;;5051091;28;20084;-73
2022/11/04 02:03:23;;;;;;;10.13;0.60;;;10.50;99.90;;;;;;5051025;28;20067;-73
2022/11/04 02:05:50;;;;;;;4.07;0.55;;;10.50;99.90;;;;;;5050863;28;20044;-73
2022/11/04 02:08:16;;;;;;;2.90;0.88;;;10.50;99.90;;;;;;5050587;28;20126;-73
2022/11/04 02:10:51;;;;;;;2.17;0.40;;;10.50;99.90;;;;;;5050351;28;20485;-74
2022/11/04 02:13:17;;;;;;;5.78;0.60;;;10.50;99.90;;;;;;5032401;28;20053;-72
2022/11/04 02:15:51;;;;;;;2.92;0.52;;;10.50;99.90;;;;;;5050719;28;20392;-73
2022/11/04 02:18:45;;;;;;;7.95;0.98;;;10.50;99.90;;;;;;5032544;28;20052;-77
2022/11/04 02:21:23;;;;;;;6.15;0.70;;;10.40;99.90;;;;;;5050473;28;20107;-73
2022/11/04 02:24:13;;;;;;;8.13;0.75;;;10.40;99.90;;;;;;5031974;28;20048;-74
2022/11/04 02:27:05;;;;;;;4.38;0.57;;;10.40;99.90;;;;;;5032926;28;20053;-73
2022/11/04 02:30:02;;;;;;;9.50;0.63;;;10.50;99.90;;;;;;5009505;28;20061;-74
2022/11/04 02:32:44;;;;;;;4.00;0.52;;;10.40;99.90;;;;;;5012644;28;20102;-75
2022/11/04 02:35:33;;;;;;;4.82;0.55;;;10.40;99.90;;;;;;5013037;28;20528;-74
2022/11/04 02:38:09;;;;;;;9.98;0.80;;;10.40;99.90;;;;;;4998993;28;20066;-74
2022/11/04 02:40:35;;;;;;;6.30;0.70;;;10.40;99.90;;;;;;5026923;28;20130;-75
2022/11/04 02:43:12;;;;;;;6.57;0.40;;;10.40;99.90;;;;;;5031985;28;20049;-74
2022/11/04 02:45:45;;;;;;;5.43;0.82;;;10.40;99.90;;;;;;5032133;28;20056;-74
2022/11/04 02:48:26;;;;;;;4.25;0.75;;;10.40;99.90;;;;;;5050296;28;20079;-76
2022/11/04 02:51:02;;;;;;;6.90;0.70;;;10.40;99.90;;;;;;5031991;28;20131;-75
2022/11/04 02:54:09;;;;;;;5.95;0.70;;;10.40;99.90;;;;;;5049795;28;20088;-74
2022/11/04 02:56:40;;;;;;;6.22;0.60;;;10.40;99.90;;;;;;4968983;28;20464;-75
2022/11/04 02:59:14;;;;;;;9.05;0.85;;;10.50;99.90;;;;;;4968710;28;20047;-74
2022/11/04 03:01:42;;;;;;;7.00;0.83;;;10.60;99.90;;;;;;4942382;29;20511;-73
2022/11/04 03:04:16;;;;;;;4.50;0.52;;;10.40;99.90;;;;;;4943949;28;20302;-74
2022/11/04 03:06:43;;;;;;;8.18;0.73;;;10.40;99.90;;;;;;4968938;28;20066;-75
2022/11/04 03:09:12;;;;;;;3.95;1.02;;;10.90;99.90;;;;;;4952901;28;20398;-75
2022/11/04 03:11:42;;;;;;;9.52;0.85;;;10.30;99.90;;;;;;4968703;28;20051;-75
2022/11/04 03:14:15;;;;;;;5.55;0.85;;;10.70;99.90;;;;;;4951993;28;20070;-74
2022/11/04 03:16:50;;;;;;;8.93;1.83;;;10.60;99.90;;;;;;4945485;29;20043;-75
2022/11/04 03:19:32;;;;;;;5.30;0.90;;;10.40;99.90;;;;;;4960374;28;20050;-79
2022/11/04 03:22:10;;;;;;;6.97;0.88;;;10.40;99.90;;;;;;4952134;28;20058;-77
2022/11/04 03:24:36;;;;;;;6.07;0.88;;;10.30;99.90;;;;;;4968233;28;20047;-73
2022/11/04 03:27:12;;;;;;;4.93;0.60;;;10.30;99.90;;;;;;4953049;28;20681;-75
2022/11/04 03:30:06;;;;;;;2.65;0.60;;;10.30;99.90;;;;;;4967594;28;20057;-75
2022/11/04 03:32:51;;;;;;;9.37;0.90;;;10.30;99.90;;;;;;4966782;28;20420;-74
2022/11/04 03:35:18;;;;;;;6.53;1.20;;;10.40;99.90;;;;;;5048855;28;20048;-75
2022/11/04 03:37:46;;;;;;;8.00;1.05;;;10.40;99.90;;;;;;5049111;28;20060;-76
2022/11/04 03:40:13;;;;;;;7.20;0.80;;;10.40;99.90;;;;;;5049491;28;20052;-75
2022/11/04 03:43:06;;;;;;;5.43;0.60;;;10.30;99.90;;;;;;5049281;28;20433;-75
2022/11/04 03:45:32;;;;;;;5.47;1.65;;;10.30;99.90;;;;;;5048760;28;20516;-75
2022/11/04 03:47:58;;;;;;;3.60;0.70;;;10.40;99.90;;;;;;5031439;28;20114;-75
2022/11/04 03:50:40;;;;;;;4.60;0.70;;;10.30;99.90;;;;;;5049501;28;20098;-76
2022/11/04 03:53:07;;;;;;;4.03;0.80;;;10.40;99.90;;;;;;5030649;28;20197;-75
2022/11/04 03:56:01;;;;;;;7.65;1.13;;;10.40;99.90;;;;;;5030577;28;20066;-74
2022/11/04 03:59:06;;;;;;;7.22;1.05;;;10.30;99.90;;;;;;5048723;28;20049;-75
2022/11/04 04:01:44;;;;;;;7.78;1.17;;;10.40;99.90;;;;;;5027393;28;20103;-75
2022/11/04 04:04:21;;;;;;;5.28;1.30;;;10.40;99.90;;;;;;5011510;28;20061;-74
2022/11/04 04:06:50;;;;;;;8.05;1.08;;;10.40;99.90;;;;;;5029388;28;20064;-74
2022/11/04 04:09:25;;;;;;;4.40;1.05;;;10.40;99.90;;;;;;5025833;28;20049;-75
2022/11/04 04:11:56;;;;;;;6.82;1.15;;;10.30;99.90;;;;;;5048844;28;20049;-76
2022/11/04 04:14:44;;;;;;;5.45;0.80;;;10.40;99.90;;;;;;5048637;28;20880;-74
2022/11/04 04:17:09;;;;;;;5.32;0.77;;;10.30;99.90;;;;;;5031212;28;20056;-75
2022/11/04 04:19:36;;;;;;;5.07;0.90;;;10.30;99.90;;;;;;5049158;28;20049;-76
2022/11/04 04:22:12;;;;;;;5.63;0.90;;;10.30;99.90;;;;;;5030592;28;20060;-74
2022/11/04 04:27:32;;;;;;;4.85;0.60;;;10.20;99.90;;;;;;5048039;28;20192;-73
2022/11/04 04:30:08;;;;;;;3.53;0.43;;;10.20;99.90;;;;;;5048195;28;20045;-75
2022/11/04 04:32:46;;;;;;;4.22;0.60;;;10.10;99.90;;;;;;5031088;28;20047;-74
2022/11/04 04:46:26;;;;;;;4.05;0.80;;;10.10;99.90;;;;;;5048770;28;20057;-74
2022/11/04 04:48:51;;;;;;;3.13;0.60;;;10.00;99.90;;;;;;5052216;28;20052;-75
2022/11/04 04:51:17;;;;;;;5.97;0.57;;;10.50;99.90;;;;;;5052422;28;20041;-74
2022/11/04 04:53:42;;;;;;;5.28;0.50;;;10.20;99.90;;;;;;5051690;28;20515;-74
2022/11/04 04:56:08;;;;;;;6.82;0.60;;;9.90;99.90;;;;;;5052210;28;20044;-74
2022/11/04 04:58:34;;;;;;;3.13;0.43;;;9.90;99.90;;;;;;5051509;28;20542;-77
2022/11/04 05:00:59;;;;;;;3.75;0.60;;;9.90;99.90;;;;;;5051914;28;20040;-74
2022/11/04 05:03:25;;;;;;;3.38;0.75;;;10.00;99.90;;;;;;5051937;28;20048;-73
2022/11/04 05:05:50;;;;;;;5.68;0.50;;;9.90;99.90;;;;;;5051972;28;20114;-73
2022/11/04 05:08:16;;;;;;;5.80;0.43;;;9.80;99.90;;;;;;5052190;28;20137;-78
2022/11/04 05:10:42;;;;;;;4.75;0.43;;;9.80;99.90;;;;;;5034030;28;20041;-74
2022/11/04 05:13:28;;;;;;;2.45;0.50;;;9.80;99.90;;;;;;5052019;28;20418;-74
2022/11/04 05:16:02;;;;;;;1.30;0.43;;;9.80;99.90;;;;;;5051772;28;20059;-74
2022/11/04 05:18:28;;;;;;;3.45;0.47;;;9.70;99.90;;;;;;5033728;28;20526;-75
2022/11/04 05:20:53;;;;;;;3.65;0.32;;;9.70;99.90;;;;;;5051702;28;20045;-75
2022/11/04 05:23:19;;;;;;;4.18;0.45;;;9.70;99.90;;;;;;5051546;28;20037;-73
2022/11/04 05:25:45;;;;;;;4.97;0.50;;;9.70;99.90;;;;;;5033861;28;20341;-74
2022/11/04 05:28:10;;;;;;;3.47;0.57;;;9.70;99.90;;;;;;5051994;28;20155;-73
2022/11/04 05:30:36;;;;;;;0.63;0.25;;;9.60;99.90;;;;;;5033680;28;20088;-74
2022/11/04 05:33:02;;;;;;;3.47;0.40;;;9.70;99.90;;;;;;5033052;28;20377;-74
2022/11/04 05:35:28;;;;;;;3.47;0.47;;;9.60;99.90;;;;;;5051686;28;20041;-75
2022/11/04 05:37:56;;;;;;;9.73;0.60;;;9.80;99.90;;;;;;5033030;28;20049;-73
2022/11/04 05:40:23;;;;;;;3.47;0.50;;;9.60;99.90;;;;;;5032891;28;20053;-74
2022/11/04 05:42:48;;;;;;;1.98;0.28;;;9.50;99.90;;;;;;5051062;28;20136;-74
2022/11/04 05:45:14;;;;;;;3.03;0.70;;;9.60;99.90;;;;;;5051126;28;20084;-74
2022/11/04 05:47:39;;;;;;;8.38;0.75;;;9.60;99.90;;;;;;5051134;28;20057;-75
2022/11/04 05:50:06;;;;;;;7.68;0.52;;;9.50;99.90;;;;;;5051262;28;20073;-74
2022/11/04 05:52:31;;;;;;;2.97;0.43;;;9.50;99.90;;;;;;5032971;28;20041;-74
2022/11/04 05:54:57;;;;;;;8.45;0.70;;;9.50;99.90;;;;;;5051417;28;20052;-73
2022/11/04 05:57:22;;;;;;;7.50;0.70;;;9.50;99.90;;;;;;5051268;28;20044;-75
2022/11/04 05:59:48;;;;;;;6.90;0.57;;;9.50;99.90;;;;;;5032483;28;20558;-73
2022/11/04 06:02:13;;;;;;;3.38;0.57;;;9.40;99.90;;;;;;5050451;28;20049;-73
2022/11/04 06:04:39;;;;;;;4.78;0.70;;;9.40;99.90;;;;;;5050992;28;20041;-75
2022/11/04 06:07:05;;;;;;;8.18;0.82;;;9.40;99.90;;;;;;5032597;28;20044;-73
2022/11/04 06:09:40;;;;;;;5.60;0.80;;;9.30;99.90;;;;;;5050881;28;20041;-73
2022/11/04 06:12:06;;;;;;;;;;;9.30;99.90;;;;;;5051120;28;20063;-74
2022/11/04 06:14:32;;;;;;;7.80;0.80;;;9.30;99.90;;;;;;5032475;28;19996;-72
2022/11/04 06:16:59;;;;;;;3.10;0.68;;;9.50;99.90;;;;;;5050450;28;20041;-73
2022/11/04 06:19:25;;;;;;;5.28;0.88;;;9.30;99.90;;;;;;5050240;28;20139;-74
2022/11/04 06:21:51;;;;;;;6.68;0.98;;;9.30;99.90;;;;;;5031978;28;20128;-73
2022/11/04 06:24:16;;;;;;;4.22;0.90;;;9.30;99.90;;;;;;5050420;28;20056;-73
2022/11/04 06:26:42;;;;;;;4.60;0.82;;;9.30;99.90;;;;;;5032215;28;20048;-74
2022/11/04 06:29:08;;;;;;;4.63;1.38;;;10.00;99.90;;;;;;5050206;28;20072;-74
2022/11/04 06:31:34;;;;;;;6.18;0.98;;;9.30;99.90;;;;;;5032136;28;20068;-76
2022/11/04 06:34:00;;;;;;;3.38;0.90;;;9.20;99.90;;;;;;5050010;28;20140;-73
2022/11/04 06:36:26;;;;;;;4.78;0.90;;;9.30;99.90;;;;;;5050464;28;20060;-74
2022/11/04 06:38:51;;;;;;;3.05;0.82;;;9.20;99.90;;;;;;5050292;28;20403;-74
2022/11/04 06:41:17;;;;;;;5.55;0.90;;;9.20;99.90;;;;;;5049790;28;20045;-73
2022/11/04 06:43:44;;;;;;;5.05;0.88;;;9.20;99.90;;;;;;5050245;28;20041;-74
2022/11/04 06:46:26;;;;;;;2.60;0.93;;;9.20;99.90;;;;;;5031935;28;20057;-75
2022/11/04 06:48:53;;;;;;;6.43;1.25;;;9.10;99.90;;;;;;5049632;28;20053;-73
2022/11/04 06:51:19;;;;;;;4.93;1.10;;;9.10;99.90;;;;;;5049706;28;20044;-74
2022/11/04 06:53:45;;;;;;;4.72;0.88;;;9.50;99.90;;;;;;5049967;28;20053;-73
2022/11/04 06:56:10;;;;;;;2.58;0.90;;;9.30;99.90;;;;;;5050057;28;20059;-74
2022/11/04 06:58:36;;;;;;;10.52;1.00;;;9.00;99.90;;;;;;5032040;28;20064;-74
2022/11/04 07:01:01;;;;;;;4.28;0.88;;;9.10;99.90;;;;;;5049810;28;20067;-73
2022/11/04 07:03:27;;;;;;;6.38;1.02;;;9.00;99.90;;;;;;5049249;28;20056;-74
2022/11/04 07:05:53;;;;;;;5.85;0.90;;;8.90;99.90;;;;;;5049511;28;20180;-75
2022/11/04 07:08:22;;;;;;;5.53;0.80;;;9.00;99.90;;;;;;5049696;28;20136;-73
2022/11/04 07:10:48;;;;;;;4.20;0.80;;;9.00;99.90;;;;;;5030553;28;20478;-74
2022/11/04 07:13:15;;;;;;;6.85;0.80;;;8.90;99.90;;;;;;5031880;28;20059;-74
2022/11/04 07:15:41;;;;;;;4.95;0.80;;;8.90;99.90;;;;;;5031139;28;20056;-73
2022/11/04 07:18:06;;;;;;;4.80;0.85;;;8.90;99.90;;;;;;5049583;28;20211;-74
2022/11/04 07:20:34;;;;;;;7.10;1.10;;;8.90;99.90;;;;;;5049047;28;20095;-74
2022/11/04 07:23:00;;;;;;;8.48;1.00;;;8.90;99.90;;;;;;5049378;28;20123;-74
2022/11/04 07:25:26;;;;;;;6.80;0.93;;;8.90;99.90;;;;;;5049435;28;20467;-72
2022/11/04 07:27:51;;;;;;;8.80;1.15;;;8.90;99.90;;;;;;5048986;28;20119;-73
2022/11/04 07:30:19;;;;;;;5.15;0.98;;;9.00;99.90;;;;;;5049113;28;20041;-73
2022/11/04 07:32:45;;;;;;;5.10;1.20;;;8.90;99.90;;;;;;5049239;28;20137;-75
2022/11/04 07:35:11;;;;;;;6.45;1.20;;;8.90;99.90;;;;;;5048800;28;20182;-73
2022/11/04 07:37:37;;;;;;;6.93;1.25;;;8.90;99.90;;;;;;5049278;28;20045;-74
2022/11/04 07:40:04;;;;;;;7.10;1.40;;;8.90;99.90;;;;;;5048869;28;20387;-74
2022/11/04 07:42:29;;;;;;;4.25;1.30;;;8.90;99.90;;;;;;5031244;28;20057;-74
2022/11/04 07:44:55;;;;;;;4.80;1.20;;;8.90;99.90;;;;;;5030868;28;20140;-74
2022/11/04 07:47:21;;;;;;;4.50;1.20;;;9.00;99.90;;;;;;5030672;28;20127;-73
2022/11/04 07:49:46;;;;;;;5.78;1.30;;;9.00;99.90;;;;;;5049066;28;20041;-75
2022/11/04 07:52:12;;;;;;;3.80;1.20;;;9.00;99.90;;;;;;5031379;28;20376;-74
2022/11/04 07:54:37;;;;;;;4.43;1.30;;;9.00;99.90;;;;;;5031573;28;20044;-75
2022/11/04 07:57:03;;;;;;;4.35;1.13;;;9.50;99.90;;;;;;5049546;28;20043;-76
2022/11/04 07:59:29;;;;;;;3.47;1.10;;;9.10;99.90;;;;;;5048951;28;20377;-75
2022/11/04 08:01:55;;;;;;;8.45;1.30;;;9.10;99.90;;;;;;5049078;28;20056;-76
2022/11/04 08:04:21;;;;;;;3.60;1.15;;;9.20;99.90;;;;;;5049381;28;20492;-74
2022/11/04 08:06:47;;;;;;;6.45;1.40;;;9.20;99.90;;;;;;5048573;28;20099;-74
2022/11/04 08:09:12;;;;;;;6.70;1.13;;;9.30;99.90;;;;;;5049295;28;20041;-74
2022/11/04 08:11:38;;;;;;;5.25;1.20;;;9.40;99.90;;;;;;5048946;28;20092;-74
2022/11/04 08:14:04;;;;;;;6.20;1.52;;;9.40;99.90;;;;;;5049210;28;20041;-76
2022/11/04 08:16:30;;;;;;;2.95;1.10;;;9.50;99.90;;;;;;5048222;28;20044;-74
2022/11/04 08:19:00;;;;;;;5.80;1.27;;;9.50;99.90;;;;;;5031486;28;20108;-74
2022/11/04 08:21:28;;;;;;;6.57;1.20;;;9.50;99.90;;;;;;5030989;28;20124;-76
2022/11/04 08:23:54;;;;;;;5.50;1.05;;;9.60;99.90;;;;;;5053162;28;20044;-76
2022/11/04 08:26:24;;;;;;;11.07;1.15;;;9.60;99.90;;;;;;5053019;28;20690;-74
2022/11/04 08:28:50;;;;;;;6.00;1.17;;;9.60;99.90;;;;;;5052959;28;20044;-74
2022/11/04 08:31:25;;;;;;;3.90;0.90;;;9.70;99.90;;;;;;5052961;28;20049;-74
2022/11/04 08:33:51;;;;;;;;;;;9.70;99.90;;;;;;5053386;28;20049;-76
2022/11/04 08:36:43;;;;;;;3.33;1.10;;;9.70;99.90;;;;;;5052806;28;20391;-76
2022/11/04 08:39:10;;;;;;;4.13;0.80;;;9.80;99.90;;;;;;5048830;28;20045;-74
2022/11/04 08:41:39;;;;;;;3.17;1.00;;;10.40;99.90;;;;;;5033119;28;20061;-75
2022/11/04 08:44:06;;;;;;;4.28;0.90;;;10.10;99.90;;;;;;5052207;28;20484;-77
2022/11/04 08:46:36;;;;;;;5.45;0.80;;;10.90;99.90;;;;;;5052461;28;20064;-76
2022/11/04 08:49:02;;;;;;;3.97;0.93;;;10.10;99.90;;;;;;5052636;28;20102;-74
2022/11/04 08:51:30;;;;;;;4.65;1.00;;;10.20;99.90;;;;;;5052458;28;20168;-73
2022/11/04 08:53:56;;;;;;;6.53;1.00;;;10.30;99.90;;;;;;5052703;28;20081;-76
2022/11/04 08:56:28;;;;;;;5.82;1.65;;;10.40;99.90;;;;;;5051909;28;20092;-76
2022/11/04 08:58:54;;;;;;;4.13;0.88;;;11.00;99.90;;;;;;5052705;28;20580;-75
2022/11/04 09:01:21;;;;;;;6.88;0.98;;;10.60;99.90;;;;;;5051936;28;20484;-76
2022/11/04 09:03:47;;;;;;;7.97;0.75;;;11.60;99.90;;;;;;5033742;28;20041;-74
2022/11/04 09:06:20;;;;;;;3.90;0.80;;;10.90;99.90;;;;;;5019219;28;20045;-73
2022/11/04 09:08:55;;;;;;;4.07;0.70;;;11.10;99.90;;;;;;5014558;28;20053;-73
2022/11/04 09:11:22;;;;;;;3.90;0.73;;;11.10;99.90;;;;;;5050927;23;20136;-75
2022/11/04 09:13:48;;;;;;;7.60;1.27;;;11.90;99.90;;;;;;5031347;28;20056;-73
2022/11/04 09:16:14;;;;;;;4.28;0.90;;;12.10;99.90;;;;;;5031638;28;20041;-73
2022/11/04 09:18:41;;;;;;;6.65;0.98;;;11.50;99.90;;;;;;5032629;28;20075;-76
2022/11/04 09:21:08;;;;;;;5.18;1.08;;;11.70;99.90;;;;;;5030826;28;20096;-75
2022/11/04 09:23:33;;;;;;;3.50;0.80;;;11.80;99.90;;;;;;5031993;28;20064;-75
2022/11/04 09:26:05;;;;;;;5.93;1.02;;;11.90;99.90;;;;;;5032837;28;20384;-76
2022/11/04 09:28:31;;;;;;;4.20;0.80;;;12.00;99.90;;;;;;5031688;28;20041;-76
2022/11/04 09:30:57;;;;;;;7.70;0.70;;;12.40;99.90;;;;;;5031829;28;20106;-75
2022/11/04 09:33:23;;;;;;;4.25;0.80;;;12.20;99.90;;;;;;5030873;28;20045;-76
2022/11/04 09:35:57;;;;;;;7.53;0.93;;;12.30;99.90;;;;;;5031876;28;20049;-76
2022/11/04 09:38:26;;;;;;;8.65;1.20;;;12.40;99.90;;;;;;5031047;28;20511;-76
2022/11/04 09:40:52;;;;;;;5.82;0.90;;;12.60;99.90;;;;;;5031643;28;20511;-76
2022/11/04 09:43:53;;;;;;;4.15;1.00;;;12.70;99.90;;;;;;5031753;28;20060;-75
2022/11/04 09:46:20;;;;;;;8.45;1.65;;;12.90;99.90;;;;;;5031814;28;20750;-74
2022/11/04 09:48:55;;;;;;;4.88;0.80;;;12.90;99.90;;;;;;5031551;28;20041;-75
2022/11/04 09:51:25;;;;;;;5.60;0.95;;;13.00;99.90;;;;;;5030510;28;20341;-78
2022/11/04 09:53:56;;;;;;;4.32;0.90;;;13.00;99.90;;;;;;5031388;28;20500;-76
2022/11/04 09:56:36;;;;;;;4.55;0.93;;;13.10;99.90;;;;;;5031431;28;20044;-76
2022/11/04 09:59:03;;;;;;;6.57;1.08;;;13.20;99.90;;;;;;5031282;28;20046;-76
2022/11/04 10:01:48;;;;;;;5.93;1.00;;;13.30;99.90;;;;;;5031063;28;20084;-78
2022/11/04 10:04:32;;;;;;;5.90;0.88;;;13.40;99.90;;;;;;5029883;28;20405;-75
2022/11/04 10:07:10;;;;;;;4.07;0.82;;;13.60;99.90;;;;;;5025324;28;20384;-76
2022/11/04 10:09:57;;;;;;;8.27;0.75;;;13.60;99.90;;;;;;5029795;28;20053;-77
2022/11/04 10:13:01;;;;;;;7.65;0.95;;;13.60;99.90;;;;;;5049595;28;20052;-75
2022/11/04 10:15:49;;;;;;;6.18;1.10;;;13.70;99.90;;;;;;5033152;28;20471;-77
2022/11/04 10:18:33;;;;;;;5.20;1.00;;;13.80;99.90;;;;;;5051185;28;20037;-78
2022/11/04 10:21:16;;;;;;;7.85;0.90;;;13.70;99.90;;;;;;5050283;28;20053;-77
2022/11/04 10:23:42;;;;;;;5.97;0.80;;;13.80;99.90;;;;;;5050511;28;20399;-77
2022/11/04 10:26:32;;;;;;;3.65;0.63;;;13.70;99.90;;;;;;5050545;28;20040;-77
2022/11/04 10:29:04;;;;;;;6.72;1.10;;;13.80;99.90;;;;;;5050444;28;20096;-78
2022/11/04 10:31:30;;;;;;;9.60;1.23;;;13.90;99.90;;;;;;5032825;28;20045;-76
2022/11/04 10:34:06;;;;;;;5.40;1.30;;;14.10;99.90;;;;;;5050317;28;20539;-79
2022/11/04 10:36:33;;;;;;;4.05;0.70;;;14.00;99.90;;;;;;5050485;28;20077;-78
2022/11/04 10:39:03;;;;;;;4.32;0.80;;;14.50;99.90;;;;;;5073193;22;20143;-78
2022/11/04 10:41:33;;;;;;;7.03;0.80;;;14.40;99.90;;;;;;5091873;28;20051;-77
2022/11/04 10:44:04;;;;;;;6.82;0.82;;;14.20;99.90;;;;;;5075685;28;20382;-76
2022/11/04 10:47:03;;;;;;;2.97;0.65;;;14.50;99.90;;;;;;5110970;28;20114;-77
2022/11/04 10:49:38;;;;;;;9.00;0.95;;;14.30;99.90;;;;;;5111053;28;20063;-74
2022/11/04 10:52:14;;;;;;;3.45;0.70;;;14.40;99.90;;;;;;5092469;28;20468;-78
2022/11/04 10:54:43;;;;;;;5.80;1.00;;;14.50;99.90;;;;;;5110072;28;20801;-78
2022/11/04 10:57:13;;;;;;;6.88;0.80;;;14.70;99.90;;;;;;5110803;28;20398;-76
2022/11/04 10:59:41;;;;;;;5.63;1.10;;;14.70;99.90;;;;;;5110620;28;20094;-76
2022/11/04 11:02:08;;;;;;;7.85;1.05;;;14.80;99.90;;;;;;5110340;28;20043;-79
2022/11/04 11:04:36;;;;;;;6.88;0.98;;;14.70;99.90;;;;;;5110221;28;20040;-77
2022/11/04 11:07:05;;;;;;;3.88;0.73;;;14.50;99.90;;;;;;5110166;28;20051;-78
2022/11/04 11:09:34;;;;;;;5.00;0.85;;;14.40;99.90;;;;;;5091878;28;20063;-77
2022/11/04 11:12:12;;;;;;;8.25;1.27;;;14.40;99.90;;;;;;5086945;28;20120;-78
2022/11/04 11:14:40;;;;;;;10.25;1.48;;;14.10;99.90;;;;;;5110130;28;20489;-77
2022/11/04 11:17:33;;;;;;;4.55;1.05;;;14.10;99.90;;;;;;5109876;28;20828;-78
2022/11/04 11:20:20;;;;;;;7.10;1.15;;;14.00;99.90;;;;;;5100513;28;20079;-78
2022/11/04 11:22:49;;;;;;;3.45;0.80;;;13.90;99.90;;;;;;5110085;28;20043;-77
2022/11/04 11:25:29;;;;;;;8.70;1.58;;;13.90;99.90;;;;;;5109803;28;20040;-77
2022/11/04 11:28:05;;;;;;;4.88;0.77;;;13.60;99.90;;;;;;5074169;28;20126;-76
2022/11/04 11:30:42;;;;;;;5.97;0.90;;;13.40;99.90;;;;;;5089595;28;20048;-76
2022/11/04 11:33:27;;;;;;;6.82;1.05;;;13.30;99.90;;;;;;5089622;28;20056;-78
2022/11/04 11:35:58;;;;;;;3.38;0.77;;;13.20;99.90;;;;;;5103971;28;20328;-76
2022/11/04 11:38:29;;;;;;;4.70;0.70;;;13.00;99.90;;;;;;5109467;28;20558;-77
2022/11/04 11:41:10;;;;;;;3.60;0.65;;;12.90;99.90;;;;;;5109369;28;20047;-74
2022/11/04 11:43:43;;;;;;;3.88;0.68;;;12.80;99.90;;;;;;5109464;28;20122;-76
2022/11/04 11:46:10;;;;;;;7.40;1.08;;;12.70;99.90;;;;;;5109641;28;20047;-75
2022/11/04 11:48:49;;;;;;;5.53;0.90;;;12.60;99.90;;;;;;5109036;28;20048;-75
2022/11/04 11:51:26;;;;;;;4.97;0.90;;;12.60;99.90;;;;;;5109643;28;20050;-77
2022/11/04 11:54:07;;;;;;;3.00;0.68;;;12.40;99.90;;;;;;5109684;28;20039;-75
2022/11/04 11:56:42;;;;;;;3.70;0.70;;;12.90;99.90;;;;;;5089918;28;20040;-78
2022/11/04 11:59:21;;;;;;;3.63;0.65;;;12.20;99.90;;;;;;5109160;28;20061;-77
2022/11/04 12:01:56;;;;;;;3.47;0.60;;;12.40;99.90;;;;;;5109576;28;20047;-77
2022/11/04 12:04:22;;;;;;;4.00;0.55;;;12.10;99.90;;;;;;5110492;28;20035;-78
2022/11/04 12:07:07;;;;;;;5.25;0.70;;;12.00;99.90;;;;;;5109414;28;20044;-78
2022/11/04 12:09:58;;;;;;;2.85;0.88;;;11.80;99.90;;;;;;5074318;28;20486;-77
2022/11/04 12:12:41;;;;;;;6.80;1.40;;;11.70;99.90;;;;;;5109287;28;20077;-77
2022/11/04 12:15:43;;;;;;;2.95;0.70;;;11.60;99.90;;;;;;5109511;28;20048;-78
2022/11/04 12:18:18;;;;;;;6.80;0.80;;;11.70;99.90;;;;;;5109820;28;20043;-77
2022/11/04 12:21:02;;;;;;;4.35;0.70;;;11.70;99.90;;;;;;5109739;28;20112;-78
2022/11/04 12:23:55;;;;;;;6.88;0.90;;;11.70;99.90;;;;;;5097021;28;20071;-77
2022/11/04 12:26:27;;;;;;;5.97;0.90;;;11.80;99.90;;;;;;5090385;28;20058;-79
2022/11/04 12:29:34;;;;;;;4.28;0.90;;;11.90;99.90;;;;;;5109422;28;20061;-80
2022/11/04 12:32:38;;;;;;;3.47;0.82;;;11.90;99.90;;;;;;5109471;28;20142;-79
2022/11/04 12:35:27;;;;;;;5.78;0.95;;;11.90;99.90;;;;;;5109638;28;20500;-80
2022/11/04 12:37:55;;;;;;;4.90;1.17;;;12.00;99.90;;;;;;5099647;22;20051;-79
2022/11/04 12:40:21;;;;;;;3.83;0.70;;;12.00;99.90;;;;;;5068664;28;20091;-77
2022/11/04 12:42:58;;;;;;;5.97;0.82;;;12.10;99.90;;;;;;5069701;28;20080;-77
2022/11/04 12:45:30;;;;;;;3.97;0.77;;;12.10;99.90;;;;;;5088840;28;20124;-78
2022/11/04 12:48:06;;;;;;;6.15;0.82;;;12.00;99.90;;;;;;5088399;28;20083;-79
2022/11/04 12:50:41;;;;;;;5.15;0.77;;;12.70;99.90;;;;;;5070836;28;20466;-78
2022/11/04 12:54:04;;;;;;;5.75;0.95;;;12.50;99.90;;;;;;5088714;28;20075;-78
2022/11/04 12:56:40;;;;;;;7.32;1.52;;;12.80;99.90;;;;;;4986683;28;20050;-77
2022/11/04 12:59:38;;;;;;;3.58;0.80;;;13.30;99.90;;;;;;4986291;28;20953;-76
2022/11/04 13:02:24;;;;;;;4.50;0.75;;;13.30;99.90;;;;;;4985328;28;20054;-75
2022/11/04 13:05:02;;;;;;;3.45;0.70;;;13.50;99.90;;;;;;4973709;28;20149;-76
2022/11/04 13:07:39;;;;;;;6.15;0.93;;;13.70;99.90;;;;;;4967127;28;20046;-79
2022/11/04 13:10:20;;;;;;;7.40;0.65;;;14.00;99.90;;;;;;4984217;28;20050;-77
2022/11/04 13:12:48;;;;;;;6.07;0.80;;;14.20;99.90;;;;;;4989713;28;20053;-77
2022/11/04 13:15:27;;;;;;;4.65;0.60;;;14.20;99.90;;;;;;4973679;28;20081;-77
2022/11/04 13:17:59;;;;;;;4.35;0.90;;;14.40;99.90;;;;;;4990020;28;20401;-78
2022/11/04 13:20:59;;;;;;;6.13;0.88;;;14.60;99.90;;;;;;4989998;28;20154;-77
2022/11/04 13:23:33;;;;;;;4.15;0.77;;;14.80;99.90;;;;;;4989772;28;20108;-78
2022/11/04 13:26:02;;;;;;;7.88;1.05;;;15.00;99.90;;;;;;4999803;28;20113;-78
2022/11/04 13:28:28;;;;;;;5.03;0.90;;;15.00;99.90;;;;;;5073720;28;20050;-77
2022/11/04 13:31:04;;;;;;;5.97;1.15;;;15.20;99.90;;;;;;5091970;28;20443;-78
2022/11/04 13:33:58;;;;;;;4.95;1.33;;;15.20;99.90;;;;;;5091749;28;20043;-78
2022/11/04 13:36:49;;;;;;;4.68;1.10;;;15.10;99.90;;;;;;5091903;28;20048;-78
2022/11/04 13:39:36;;;;;;;8.65;1.45;;;15.00;99.90;;;;;;5089285;28;20052;-76
2022/11/04 13:42:33;;;;;;;5.05;1.02;;;14.80;99.90;;;;;;5091311;28;20085;-77
2022/11/04 13:45:11;;;;;;;7.35;1.20;;;14.80;99.90;;;;;;5091157;28;20040;-78
2022/11/04 13:47:46;;;;;;;7.63;1.20;;;14.90;99.90;;;;;;5091604;28;20576;-78